Terminal Aerodrome Forecast
Issued by NWS

Home | Current Version | Previous Version | Text Only | Print | Product List | Glossary On
Versions: 1 2 3 4 5 6 7 8 9 10 11 12 13 14 15 16 17
000
FTUS46 KMTR 180300 AAA
TAFMRY
TAF AMD
KMRY 180311Z 1803/1824 10007KT P6SM OVC070
      TEMPO 1803/1806 4SM -RA BKN060 OVC070
     FM180600 10005KT P6SM VCSH BKN060 OVC070
     FM181300 00000KT P6SM BKN050 OVC070
     FM181900 25005KT P6SM FEW020 BKN050=

USA.gov is the U.S. government's official web portal to all federal, state and local government web resources and services.